sensor_id;sensor_type;location;lat;lon;timestamp;P1;durP1;ratioP1;P2;durP2;ratioP2
22614;SDS011;11474;50.790;0.298;2022-10-16T00:00:30;20.90;;;3.67;;
22614;SDS011;11474;50.790;0.298;2022-10-16T00:02:57;14.30;;;2.97;;
22614;SDS011;11474;50.790;0.298;2022-10-16T00:05:23;19.00;;;3.42;;
22614;SDS011;11474;50.790;0.298;2022-10-16T00:07:49;25.23;;;3.97;;
22614;SDS011;11474;50.790;0.298;2022-10-16T00:10:15;22.85;;;4.03;;
22614;SDS011;11474;50.790;0.298;2022-10-16T00:12:41;28.08;;;4.47;;
22614;SDS011;11474;50.790;0.298;2022-10-16T00:15:08;21.83;;;4.10;;
22614;SDS011;11474;50.790;0.298;2022-10-16T00:17:34;29.10;;;4.38;;
22614;SDS011;11474;50.790;0.298;2022-10-16T00:20:00;21.92;;;3.60;;
22614;SDS011;11474;50.790;0.298;2022-10-16T00:22:26;26.17;;;3.87;;
22614;SDS011;11474;50.790;0.298;2022-10-16T00:24:52;25.58;;;3.83;;
22614;SDS011;11474;50.790;0.298;2022-10-16T00:27:18;25.98;;;4.50;;
22614;SDS011;11474;50.790;0.298;2022-10-16T00:29:44;22.10;;;3.80;;
22614;SDS011;11474;50.790;0.298;2022-10-16T00:32:13;26.98;;;3.92;;
22614;SDS011;11474;50.790;0.298;2022-10-16T00:34:39;26.75;;;4.00;;
22614;SDS011;11474;50.790;0.298;2022-10-16T00:37:05;18.42;;;3.55;;
22614;SDS011;11474;50.790;0.298;2022-10-16T00:39:31;19.17;;;3.38;;
22614;SDS011;11474;50.790;0.298;2022-10-16T00:41:57;17.85;;;3.28;;
22614;SDS011;11474;50.790;0.298;2022-10-16T00:47:13;18.55;;;3.00;;
22614;SDS011;11474;50.790;0.298;2022-10-16T00:49:41;20.80;;;3.67;;
22614;SDS011;11474;50.790;0.298;2022-10-16T00:52:07;17.10;;;3.10;;
22614;SDS011;11474;50.790;0.298;2022-10-16T00:54:33;21.00;;;3.65;;
22614;SDS011;11474;50.790;0.298;2022-10-16T00:57:00;18.05;;;3.50;;
22614;SDS011;11474;50.790;0.298;2022-10-16T00:59:28;19.70;;;3.45;;
22614;SDS011;11474;50.790;0.298;2022-10-16T01:01:54;26.33;;;3.60;;
22614;SDS011;11474;50.790;0.298;2022-10-16T01:04:21;22.67;;;3.83;;
22614;SDS011;11474;50.790;0.298;2022-10-16T01:11:50;21.30;;;3.45;;
22614;SDS011;11474;50.790;0.298;2022-10-16T01:16:49;22.08;;;3.42;;
22614;SDS011;11474;50.790;0.298;2022-10-16T01:21:43;22.38;;;3.40;;
22614;SDS011;11474;50.790;0.298;2022-10-16T01:29:29;30.37;;;5.17;;
22614;SDS011;11474;50.790;0.298;2022-10-16T01:32:00;34.65;;;5.00;;
22614;SDS011;11474;50.790;0.298;2022-10-16T01:34:37;34.40;;;4.57;;
22614;SDS011;11474;50.790;0.298;2022-10-16T01:37:08;35.95;;;4.13;;
22614;SDS011;11474;50.790;0.298;2022-10-16T01:39:35;31.92;;;4.88;;
22614;SDS011;11474;50.790;0.298;2022-10-16T01:42:06;33.10;;;5.50;;
22614;SDS011;11474;50.790;0.298;2022-10-16T01:44:33;28.55;;;4.35;;
22614;SDS011;11474;50.790;0.298;2022-10-16T01:47:01;29.73;;;4.68;;
22614;SDS011;11474;50.790;0.298;2022-10-16T01:49:30;29.48;;;4.80;;
22614;SDS011;11474;50.790;0.298;2022-10-16T01:51:58;25.90;;;4.30;;
22614;SDS011;11474;50.790;0.298;2022-10-16T01:54:28;22.58;;;3.65;;
22614;SDS011;11474;50.790;0.298;2022-10-16T01:56:56;22.10;;;3.53;;
22614;SDS011;11474;50.790;0.298;2022-10-16T01:59:23;25.97;;;4.07;;
22614;SDS011;11474;50.790;0.298;2022-10-16T02:01:55;19.98;;;4.03;;
22614;SDS011;11474;50.790;0.298;2022-10-16T02:04:30;20.58;;;4.22;;
22614;SDS011;11474;50.790;0.298;2022-10-16T02:06:57;26.50;;;5.72;;
22614;SDS011;11474;50.790;0.298;2022-10-16T02:09:23;25.30;;;3.83;;
22614;SDS011;11474;50.790;0.298;2022-10-16T02:11:50;29.33;;;4.32;;
22614;SDS011;11474;50.790;0.298;2022-10-16T02:14:18;22.05;;;3.90;;
22614;SDS011;11474;50.790;0.298;2022-10-16T02:16:45;21.25;;;4.25;;
22614;SDS011;11474;50.790;0.298;2022-10-16T02:19:14;19.85;;;3.47;;
22614;SDS011;11474;50.790;0.298;2022-10-16T02:21:44;29.40;;;4.10;;
22614;SDS011;11474;50.790;0.298;2022-10-16T02:26:49;25.73;;;3.77;;
22614;SDS011;11474;50.790;0.298;2022-10-16T02:29:20;22.45;;;3.88;;
22614;SDS011;11474;50.790;0.298;2022-10-16T02:31:49;24.45;;;4.40;;
22614;SDS011;11474;50.790;0.298;2022-10-16T02:34:16;18.38;;;3.35;;
22614;SDS011;11474;50.790;0.298;2022-10-16T02:36:44;20.77;;;4.40;;
22614;SDS011;11474;50.790;0.298;2022-10-16T02:39:10;25.23;;;3.95;;
22614;SDS011;11474;50.790;0.298;2022-10-16T02:41:36;19.55;;;3.72;;
22614;SDS011;11474;50.790;0.298;2022-10-16T02:44:03;24.77;;;3.35;;
22614;SDS011;11474;50.790;0.298;2022-10-16T02:46:29;17.52;;;3.65;;
22614;SDS011;11474;50.790;0.298;2022-10-16T02:48:55;16.75;;;3.30;;
22614;SDS011;11474;50.790;0.298;2022-10-16T02:51:21;20.92;;;4.20;;
22614;SDS011;11474;50.790;0.298;2022-10-16T02:53:47;15.53;;;3.23;;
22614;SDS011;11474;50.790;0.298;2022-10-16T02:56:13;23.17;;;3.67;;
22614;SDS011;11474;50.790;0.298;2022-10-16T02:58:39;20.05;;;3.75;;
22614;SDS011;11474;50.790;0.298;2022-10-16T03:01:05;22.70;;;3.42;;
22614;SDS011;11474;50.790;0.298;2022-10-16T03:03:31;22.13;;;3.70;;
22614;SDS011;11474;50.790;0.298;2022-10-16T03:05:57;23.63;;;4.18;;
22614;SDS011;11474;50.790;0.298;2022-10-16T03:08:23;19.30;;;4.50;;
22614;SDS011;11474;50.790;0.298;2022-10-16T03:10:50;17.48;;;3.42;;
22614;SDS011;11474;50.790;0.298;2022-10-16T03:13:16;18.08;;;3.97;;
22614;SDS011;11474;50.790;0.298;2022-10-16T03:15:45;26.10;;;3.90;;
22614;SDS011;11474;50.790;0.298;2022-10-16T03:18:11;20.10;;;3.88;;
22614;SDS011;11474;50.790;0.298;2022-10-16T03:20:37;26.02;;;3.72;;
22614;SDS011;11474;50.790;0.298;2022-10-16T03:23:03;25.17;;;4.03;;
22614;SDS011;11474;50.790;0.298;2022-10-16T03:25:30;22.35;;;4.60;;
22614;SDS011;11474;50.790;0.298;2022-10-16T03:27:56;23.38;;;3.78;;
22614;SDS011;11474;50.790;0.298;2022-10-16T03:30:22;18.63;;;3.97;;
22614;SDS011;11474;50.790;0.298;2022-10-16T03:32:48;21.60;;;4.10;;
22614;SDS011;11474;50.790;0.298;2022-10-16T03:35:18;22.10;;;3.15;;
22614;SDS011;11474;50.790;0.298;2022-10-16T03:37:44;20.23;;;3.05;;
22614;SDS011;11474;50.790;0.298;2022-10-16T03:40:11;17.42;;;3.22;;
22614;SDS011;11474;50.790;0.298;2022-10-16T03:42:37;18.45;;;3.10;;
22614;SDS011;11474;50.790;0.298;2022-10-16T03:45:03;16.30;;;3.20;;
22614;SDS011;11474;50.790;0.298;2022-10-16T03:47:30;20.50;;;3.47;;
22614;SDS011;11474;50.790;0.298;2022-10-16T03:49:58;18.60;;;3.20;;
22614;SDS011;11474;50.790;0.298;2022-10-16T03:52:24;20.37;;;3.30;;
22614;SDS011;11474;50.790;0.298;2022-10-16T03:54:50;26.38;;;4.35;;
22614;SDS011;11474;50.790;0.298;2022-10-16T03:57:16;26.03;;;3.90;;
22614;SDS011;11474;50.790;0.298;2022-10-16T03:59:42;18.25;;;3.20;;
22614;SDS011;11474;50.790;0.298;2022-10-16T04:02:08;15.30;;;2.33;;
22614;SDS011;11474;50.790;0.298;2022-10-16T04:04:34;20.48;;;2.88;;
22614;SDS011;11474;50.790;0.298;2022-10-16T04:07:00;16.35;;;3.08;;
22614;SDS011;11474;50.790;0.298;2022-10-16T04:09:26;18.38;;;3.58;;
22614;SDS011;11474;50.790;0.298;2022-10-16T04:11:53;24.85;;;3.45;;
22614;SDS011;11474;50.790;0.298;2022-10-16T04:14:19;25.55;;;4.15;;
22614;SDS011;11474;50.790;0.298;2022-10-16T04:16:47;19.05;;;4.03;;
22614;SDS011;11474;50.790;0.298;2022-10-16T04:19:16;29.15;;;4.20;;
22614;SDS011;11474;50.790;0.298;2022-10-16T04:21:42;22.20;;;4.00;;
22614;SDS011;11474;50.790;0.298;2022-10-16T04:24:08;27.63;;;4.15;;
22614;SDS011;11474;50.790;0.298;2022-10-16T04:26:35;22.70;;;3.60;;
22614;SDS011;11474;50.790;0.298;2022-10-16T04:29:01;21.00;;;3.88;;
22614;SDS011;11474;50.790;0.298;2022-10-16T04:31:27;20.53;;;3.70;;
22614;SDS011;11474;50.790;0.298;2022-10-16T04:33:53;17.60;;;3.55;;
22614;SDS011;11474;50.790;0.298;2022-10-16T04:36:19;21.48;;;3.97;;
22614;SDS011;11474;50.790;0.298;2022-10-16T04:38:46;23.27;;;4.15;;
22614;SDS011;11474;50.790;0.298;2022-10-16T04:41:12;27.38;;;4.03;;
22614;SDS011;11474;50.790;0.298;2022-10-16T04:43:38;27.77;;;4.32;;
22614;SDS011;11474;50.790;0.298;2022-10-16T04:46:04;20.40;;;3.80;;
22614;SDS011;11474;50.790;0.298;2022-10-16T04:48:30;23.63;;;4.28;;
22614;SDS011;11474;50.790;0.298;2022-10-16T04:50:56;23.33;;;3.97;;
22614;SDS011;11474;50.790;0.298;2022-10-16T04:53:22;24.58;;;4.25;;
22614;SDS011;11474;50.790;0.298;2022-10-16T04:55:49;24.58;;;4.80;;
22614;SDS011;11474;50.790;0.298;2022-10-16T04:58:15;29.65;;;4.78;;
22614;SDS011;11474;50.790;0.298;2022-10-16T05:00:41;28.50;;;4.70;;
22614;SDS011;11474;50.790;0.298;2022-10-16T05:03:07;23.65;;;4.22;;
22614;SDS011;11474;50.790;0.298;2022-10-16T05:05:34;27.65;;;4.38;;
22614;SDS011;11474;50.790;0.298;2022-10-16T05:08:00;32.30;;;4.67;;
22614;SDS011;11474;50.790;0.298;2022-10-16T05:10:27;22.65;;;4.18;;
22614;SDS011;11474;50.790;0.298;2022-10-16T05:12:53;24.80;;;4.53;;
22614;SDS011;11474;50.790;0.298;2022-10-16T05:15:19;29.00;;;4.72;;
22614;SDS011;11474;50.790;0.298;2022-10-16T05:17:45;23.10;;;4.15;;
22614;SDS011;11474;50.790;0.298;2022-10-16T05:20:11;24.55;;;3.92;;
22614;SDS011;11474;50.790;0.298;2022-10-16T05:22:37;22.58;;;4.30;;
22614;SDS011;11474;50.790;0.298;2022-10-16T05:25:04;26.85;;;4.00;;
22614;SDS011;11474;50.790;0.298;2022-10-16T05:27:30;32.10;;;4.82;;
22614;SDS011;11474;50.790;0.298;2022-10-16T05:29:56;30.97;;;4.70;;
22614;SDS011;11474;50.790;0.298;2022-10-16T05:32:22;29.80;;;4.55;;
22614;SDS011;11474;50.790;0.298;2022-10-16T05:34:48;29.60;;;4.28;;
22614;SDS011;11474;50.790;0.298;2022-10-16T05:37:14;23.30;;;4.22;;
22614;SDS011;11474;50.790;0.298;2022-10-16T05:39:40;23.85;;;4.50;;
22614;SDS011;11474;50.790;0.298;2022-10-16T05:42:06;24.65;;;3.72;;
22614;SDS011;11474;50.790;0.298;2022-10-16T05:44:32;20.00;;;3.55;;
22614;SDS011;11474;50.790;0.298;2022-10-16T05:46:59;21.40;;;3.90;;
22614;SDS011;11474;50.790;0.298;2022-10-16T05:49:25;21.63;;;3.60;;
22614;SDS011;11474;50.790;0.298;2022-10-16T05:51:51;27.67;;;3.78;;
22614;SDS011;11474;50.790;0.298;2022-10-16T05:54:17;23.15;;;3.38;;
22614;SDS011;11474;50.790;0.298;2022-10-16T05:56:43;21.45;;;3.83;;
22614;SDS011;11474;50.790;0.298;2022-10-16T05:59:09;18.98;;;3.47;;
22614;SDS011;11474;50.790;0.298;2022-10-16T06:01:35;22.53;;;3.83;;
22614;SDS011;11474;50.790;0.298;2022-10-16T06:04:01;19.05;;;3.70;;
22614;SDS011;11474;50.790;0.298;2022-10-16T06:06:27;21.30;;;3.08;;
22614;SDS011;11474;50.790;0.298;2022-10-16T06:08:55;21.95;;;4.47;;
22614;SDS011;11474;50.790;0.298;2022-10-16T06:11:23;21.15;;;3.45;;
22614;SDS011;11474;50.790;0.298;2022-10-16T06:13:50;21.25;;;3.33;;
22614;SDS011;11474;50.790;0.298;2022-10-16T06:16:16;17.23;;;3.83;;
22614;SDS011;11474;50.790;0.298;2022-10-16T06:18:42;22.95;;;3.50;;
22614;SDS011;11474;50.790;0.298;2022-10-16T06:21:09;20.40;;;3.05;;
22614;SDS011;11474;50.790;0.298;2022-10-16T06:23:35;17.58;;;3.20;;
22614;SDS011;11474;50.790;0.298;2022-10-16T06:26:08;19.85;;;3.33;;
22614;SDS011;11474;50.790;0.298;2022-10-16T06:28:34;28.17;;;4.05;;
22614;SDS011;11474;50.790;0.298;2022-10-16T06:31:01;23.70;;;3.80;;
22614;SDS011;11474;50.790;0.298;2022-10-16T06:33:29;27.07;;;4.20;;
22614;SDS011;11474;50.790;0.298;2022-10-16T06:36:11;25.15;;;3.85;;
22614;SDS011;11474;50.790;0.298;2022-10-16T06:38:39;21.38;;;3.25;;
22614;SDS011;11474;50.790;0.298;2022-10-16T06:41:05;22.15;;;4.07;;
22614;SDS011;11474;50.790;0.298;2022-10-16T06:43:32;22.10;;;3.50;;
22614;SDS011;11474;50.790;0.298;2022-10-16T06:46:00;23.17;;;3.72;;
22614;SDS011;11474;50.790;0.298;2022-10-16T06:48:26;19.33;;;3.35;;
22614;SDS011;11474;50.790;0.298;2022-10-16T06:51:03;24.43;;;3.90;;
22614;SDS011;11474;50.790;0.298;2022-10-16T06:53:31;24.13;;;4.00;;
22614;SDS011;11474;50.790;0.298;2022-10-16T06:55:57;23.23;;;4.35;;
22614;SDS011;11474;50.790;0.298;2022-10-16T06:58:23;21.52;;;3.80;;
22614;SDS011;11474;50.790;0.298;2022-10-16T07:00:55;21.53;;;3.40;;
22614;SDS011;11474;50.790;0.298;2022-10-16T07:03:22;19.77;;;3.22;;
22614;SDS011;11474;50.790;0.298;2022-10-16T07:05:48;22.83;;;4.70;;
22614;SDS011;11474;50.790;0.298;2022-10-16T07:08:14;23.80;;;3.65;;
22614;SDS011;11474;50.790;0.298;2022-10-16T07:10:40;19.30;;;3.33;;
22614;SDS011;11474;50.790;0.298;2022-10-16T07:13:06;21.38;;;3.42;;
22614;SDS011;11474;50.790;0.298;2022-10-16T07:15:32;18.15;;;3.50;;
22614;SDS011;11474;50.790;0.298;2022-10-16T07:17:58;26.65;;;3.90;;
22614;SDS011;11474;50.790;0.298;2022-10-16T07:20:25;24.98;;;3.67;;
22614;SDS011;11474;50.790;0.298;2022-10-16T07:22:51;25.00;;;3.90;;
22614;SDS011;11474;50.790;0.298;2022-10-16T07:25:18;22.98;;;3.83;;
22614;SDS011;11474;50.790;0.298;2022-10-16T07:27:44;22.55;;;4.30;;
22614;SDS011;11474;50.790;0.298;2022-10-16T07:30:10;27.67;;;4.17;;
22614;SDS011;11474;50.790;0.298;2022-10-16T07:32:36;25.83;;;4.05;;
22614;SDS011;11474;50.790;0.298;2022-10-16T07:35:02;24.40;;;4.23;;
22614;SDS011;11474;50.790;0.298;2022-10-16T07:37:28;21.02;;;4.03;;
22614;SDS011;11474;50.790;0.298;2022-10-16T07:39:54;22.75;;;3.90;;
22614;SDS011;11474;50.790;0.298;2022-10-16T07:42:20;23.90;;;3.78;;
22614;SDS011;11474;50.790;0.298;2022-10-16T07:44:46;22.02;;;3.80;;
22614;SDS011;11474;50.790;0.298;2022-10-16T07:47:12;20.77;;;3.70;;
22614;SDS011;11474;50.790;0.298;2022-10-16T07:49:38;20.10;;;3.22;;
22614;SDS011;11474;50.790;0.298;2022-10-16T07:52:04;22.73;;;3.30;;
22614;SDS011;11474;50.790;0.298;2022-10-16T07:54:30;22.00;;;3.50;;
22614;SDS011;11474;50.790;0.298;2022-10-16T07:56:56;21.35;;;3.88;;
22614;SDS011;11474;50.790;0.298;2022-10-16T07:59:22;19.70;;;3.30;;
22614;SDS011;11474;50.790;0.298;2022-10-16T08:01:49;22.55;;;3.83;;
22614;SDS011;11474;50.790;0.298;2022-10-16T08:04:15;19.13;;;3.15;;
22614;SDS011;11474;50.790;0.298;2022-10-16T08:06:41;20.63;;;3.35;;
22614;SDS011;11474;50.790;0.298;2022-10-16T08:09:07;20.98;;;4.07;;
22614;SDS011;11474;50.790;0.298;2022-10-16T08:11:34;19.75;;;4.25;;
22614;SDS011;11474;50.790;0.298;2022-10-16T08:14:00;20.55;;;5.05;;
22614;SDS011;11474;50.790;0.298;2022-10-16T08:16:26;23.67;;;6.70;;
22614;SDS011;11474;50.790;0.298;2022-10-16T08:18:52;22.73;;;5.20;;
22614;SDS011;11474;50.790;0.298;2022-10-16T08:21:20;24.45;;;5.28;;
22614;SDS011;11474;50.790;0.298;2022-10-16T08:23:47;19.88;;;4.32;;
22614;SDS011;11474;50.790;0.298;2022-10-16T08:26:14;19.52;;;4.47;;
22614;SDS011;11474;50.790;0.298;2022-10-16T08:28:40;25.27;;;6.00;;
22614;SDS011;11474;50.790;0.298;2022-10-16T08:31:10;18.60;;;5.33;;
22614;SDS011;11474;50.790;0.298;2022-10-16T08:33:38;21.17;;;4.55;;
22614;SDS011;11474;50.790;0.298;2022-10-16T08:36:05;23.00;;;3.97;;
22614;SDS011;11474;50.790;0.298;2022-10-16T08:38:31;16.85;;;3.53;;
22614;SDS011;11474;50.790;0.298;2022-10-16T08:41:01;22.25;;;3.30;;
22614;SDS011;11474;50.790;0.298;2022-10-16T08:43:31;20.30;;;3.60;;
22614;SDS011;11474;50.790;0.298;2022-10-16T08:48:49;23.17;;;3.78;;
22614;SDS011;11474;50.790;0.298;2022-10-16T08:51:19;16.95;;;3.33;;
22614;SDS011;11474;50.790;0.298;2022-10-16T08:53:49;24.63;;;3.70;;
22614;SDS011;11474;50.790;0.298;2022-10-16T08:56:15;23.77;;;3.53;;
22614;SDS011;11474;50.790;0.298;2022-10-16T08:58:43;16.55;;;3.42;;
22614;SDS011;11474;50.790;0.298;2022-10-16T09:01:11;17.95;;;3.50;;
22614;SDS011;11474;50.790;0.298;2022-10-16T09:11:24;19.30;;;3.72;;
22614;SDS011;11474;50.790;0.298;2022-10-16T09:16:38;22.85;;;3.70;;
22614;SDS011;11474;50.790;0.298;2022-10-16T09:21:51;18.98;;;4.32;;
22614;SDS011;11474;50.790;0.298;2022-10-16T09:24:21;27.35;;;3.95;;
22614;SDS011;11474;50.790;0.298;2022-10-16T09:26:49;19.25;;;4.00;;
22614;SDS011;11474;50.790;0.298;2022-10-16T09:29:16;20.40;;;3.40;;
22614;SDS011;11474;50.790;0.298;2022-10-16T09:31:44;19.65;;;3.47;;
22614;SDS011;11474;50.790;0.298;2022-10-16T09:34:32;20.60;;;4.18;;
22614;SDS011;11474;50.790;0.298;2022-10-16T09:36:57;19.17;;;3.40;;
22614;SDS011;11474;50.790;0.298;2022-10-16T09:39:24;16.60;;;3.37;;
22614;SDS011;11474;50.790;0.298;2022-10-16T09:41:50;20.90;;;3.72;;
22614;SDS011;11474;50.790;0.298;2022-10-16T09:46:43;19.27;;;3.60;;
22614;SDS011;11474;50.790;0.298;2022-10-16T09:49:25;20.60;;;3.90;;
22614;SDS011;11474;50.790;0.298;2022-10-16T09:51:51;22.77;;;3.80;;
22614;SDS011;11474;50.790;0.298;2022-10-16T09:54:28;23.45;;;3.63;;
22614;SDS011;11474;50.790;0.298;2022-10-16T09:57:03;19.30;;;3.50;;
22614;SDS011;11474;50.790;0.298;2022-10-16T09:59:30;22.38;;;3.97;;
22614;SDS011;11474;50.790;0.298;2022-10-16T10:01:58;22.10;;;3.80;;
22614;SDS011;11474;50.790;0.298;2022-10-16T10:04:36;18.45;;;2.90;;
22614;SDS011;11474;50.790;0.298;2022-10-16T10:07:03;19.88;;;3.70;;
22614;SDS011;11474;50.790;0.298;2022-10-16T10:09:31;19.97;;;3.53;;
22614;SDS011;11474;50.790;0.298;2022-10-16T10:11:59;17.90;;;3.97;;
22614;SDS011;11474;50.790;0.298;2022-10-16T10:16:52;19.98;;;3.63;;
22614;SDS011;11474;50.790;0.298;2022-10-16T10:19:22;20.02;;;3.78;;
22614;SDS011;11474;50.790;0.298;2022-10-16T10:21:49;21.83;;;3.75;;
22614;SDS011;11474;50.790;0.298;2022-10-16T10:24:16;24.52;;;4.60;;
22614;SDS011;11474;50.790;0.298;2022-10-16T10:26:50;21.88;;;4.43;;
22614;SDS011;11474;50.790;0.298;2022-10-16T10:29:42;20.85;;;4.43;;
22614;SDS011;11474;50.790;0.298;2022-10-16T10:34:51;19.25;;;3.63;;
22614;SDS011;11474;50.790;0.298;2022-10-16T10:42:36;17.35;;;3.22;;
22614;SDS011;11474;50.790;0.298;2022-10-16T10:45:16;22.80;;;4.20;;
22614;SDS011;11474;50.790;0.298;2022-10-16T10:47:56;16.08;;;3.00;;
22614;SDS011;11474;50.790;0.298;2022-10-16T10:56:00;17.90;;;3.23;;
22614;SDS011;11474;50.790;0.298;2022-10-16T11:01:13;19.40;;;3.95;;
22614;SDS011;11474;50.790;0.298;2022-10-16T11:09:52;17.05;;;3.17;;
22614;SDS011;11474;50.790;0.298;2022-10-16T11:12:00;17.83;;;3.13;;
22614;SDS011;11474;50.790;0.298;2022-10-16T11:14:40;17.67;;;3.10;;
22614;SDS011;11474;50.790;0.298;2022-10-16T11:17:10;21.88;;;3.40;;
22614;SDS011;11474;50.790;0.298;2022-10-16T11:27:37;17.50;;;3.78;;
22614;SDS011;11474;50.790;0.298;2022-10-16T11:30:06;19.95;;;3.30;;
22614;SDS011;11474;50.790;0.298;2022-10-16T11:35:22;15.23;;;2.78;;
22614;SDS011;11474;50.790;0.298;2022-10-16T11:37:49;17.30;;;3.77;;
22614;SDS011;11474;50.790;0.298;2022-10-16T11:40:19;16.15;;;3.25;;
22614;SDS011;11474;50.790;0.298;2022-10-16T11:42:52;16.42;;;3.03;;
22614;SDS011;11474;50.790;0.298;2022-10-16T11:48:04;15.88;;;3.20;;
22614;SDS011;11474;50.790;0.298;2022-10-16T11:50:34;21.27;;;3.47;;
22614;SDS011;11474;50.790;0.298;2022-10-16T11:58:02;21.23;;;3.85;;
22614;SDS011;11474;50.790;0.298;2022-10-16T12:00:38;21.47;;;3.87;;
22614;SDS011;11474;50.790;0.298;2022-10-16T12:08:06;18.83;;;2.88;;
22614;SDS011;11474;50.790;0.298;2022-10-16T12:10:34;19.20;;;3.28;;
22614;SDS011;11474;50.790;0.298;2022-10-16T12:13:04;22.13;;;3.83;;
22614;SDS011;11474;50.790;0.298;2022-10-16T12:15:32;15.80;;;4.10;;
22614;SDS011;11474;50.790;0.298;2022-10-16T12:17:58;15.63;;;3.40;;
22614;SDS011;11474;50.790;0.298;2022-10-16T12:22:54;21.30;;;3.10;;
22614;SDS011;11474;50.790;0.298;2022-10-16T12:27:58;19.50;;;3.03;;
22614;SDS011;11474;50.790;0.298;2022-10-16T12:30:25;18.33;;;3.33;;
22614;SDS011;11474;50.790;0.298;2022-10-16T12:32:55;15.88;;;3.00;;
22614;SDS011;11474;50.790;0.298;2022-10-16T12:35:24;19.27;;;3.67;;
22614;SDS011;11474;50.790;0.298;2022-10-16T12:37:51;14.80;;;3.28;;
22614;SDS011;11474;50.790;0.298;2022-10-16T12:40:25;17.98;;;3.22;;
22614;SDS011;11474;50.790;0.298;2022-10-16T12:42:56;14.75;;;2.72;;
22614;SDS011;11474;50.790;0.298;2022-10-16T12:47:52;13.18;;;3.10;;
22614;SDS011;11474;50.790;0.298;2022-10-16T12:50:38;16.85;;;3.03;;
22614;SDS011;11474;50.790;0.298;2022-10-16T12:56:09;16.23;;;3.17;;
22614;SDS011;11474;50.790;0.298;2022-10-16T13:01:10;15.10;;;2.73;;
22614;SDS011;11474;50.790;0.298;2022-10-16T13:03:48;15.98;;;2.78;;
22614;SDS011;11474;50.790;0.298;2022-10-16T13:06:19;15.60;;;2.50;;
22614;SDS011;11474;50.790;0.298;2022-10-16T13:11:54;12.90;;;2.70;;
22614;SDS011;11474;50.790;0.298;2022-10-16T13:17:02;12.88;;;2.33;;
22614;SDS011;11474;50.790;0.298;2022-10-16T13:19:36;15.60;;;2.83;;
22614;SDS011;11474;50.790;0.298;2022-10-16T13:29:37;11.13;;;2.70;;
22614;SDS011;11474;50.790;0.298;2022-10-16T13:32:09;16.58;;;2.72;;
22614;SDS011;11474;50.790;0.298;2022-10-16T13:34:44;10.38;;;2.50;;
22614;SDS011;11474;50.790;0.298;2022-10-16T13:37:21;10.65;;;2.17;;
22614;SDS011;11474;50.790;0.298;2022-10-16T13:39:47;17.98;;;2.60;;
22614;SDS011;11474;50.790;0.298;2022-10-16T13:42:20;12.70;;;2.50;;
22614;SDS011;11474;50.790;0.298;2022-10-16T13:44:51;12.77;;;2.67;;
22614;SDS011;11474;50.790;0.298;2022-10-16T13:47:25;11.45;;;2.22;;
22614;SDS011;11474;50.790;0.298;2022-10-16T13:52:29;15.43;;;2.72;;
22614;SDS011;11474;50.790;0.298;2022-10-16T13:54:56;11.88;;;2.50;;
22614;SDS011;11474;50.790;0.298;2022-10-16T13:57:23;11.82;;;2.30;;
22614;SDS011;11474;50.790;0.298;2022-10-16T13:59:49;11.60;;;2.22;;
22614;SDS011;11474;50.790;0.298;2022-10-16T14:02:24;14.35;;;2.30;;
22614;SDS011;11474;50.790;0.298;2022-10-16T14:04:51;11.82;;;2.25;;
22614;SDS011;11474;50.790;0.298;2022-10-16T14:07:25;11.35;;;2.50;;
22614;SDS011;11474;50.790;0.298;2022-10-16T14:09:52;12.98;;;2.08;;
22614;SDS011;11474;50.790;0.298;2022-10-16T14:12:18;13.38;;;2.55;;
22614;SDS011;11474;50.790;0.298;2022-10-16T14:14:45;13.68;;;2.78;;
22614;SDS011;11474;50.790;0.298;2022-10-16T14:19:45;11.55;;;2.72;;
22614;SDS011;11474;50.790;0.298;2022-10-16T14:22:18;14.98;;;2.53;;
22614;SDS011;11474;50.790;0.298;2022-10-16T14:24:45;18.73;;;3.03;;
22614;SDS011;11474;50.790;0.298;2022-10-16T14:27:23;11.00;;;2.40;;
22614;SDS011;11474;50.790;0.298;2022-10-16T14:29:50;10.70;;;2.30;;
22614;SDS011;11474;50.790;0.298;2022-10-16T14:32:27;13.02;;;2.42;;
22614;SDS011;11474;50.790;0.298;2022-10-16T14:34:53;7.47;;;2.20;;
22614;SDS011;11474;50.790;0.298;2022-10-16T14:37:24;14.55;;;2.70;;
22614;SDS011;11474;50.790;0.298;2022-10-16T14:39:50;13.77;;;2.60;;
22614;SDS011;11474;50.790;0.298;2022-10-16T14:42:17;14.55;;;2.30;;
22614;SDS011;11474;50.790;0.298;2022-10-16T14:44:45;11.57;;;2.45;;
22614;SDS011;11474;50.790;0.298;2022-10-16T14:47:17;13.85;;;2.40;;
22614;SDS011;11474;50.790;0.298;2022-10-16T14:49:49;10.93;;;2.38;;
22614;SDS011;11474;50.790;0.298;2022-10-16T14:52:15;15.02;;;2.80;;
22614;SDS011;11474;50.790;0.298;2022-10-16T14:54:41;13.65;;;2.90;;
22614;SDS011;11474;50.790;0.298;2022-10-16T14:57:18;12.57;;;2.80;;
22614;SDS011;11474;50.790;0.298;2022-10-16T14:59:45;11.48;;;2.38;;
22614;SDS011;11474;50.790;0.298;2022-10-16T15:02:22;8.57;;;2.40;;
22614;SDS011;11474;50.790;0.298;2022-10-16T15:04:50;9.73;;;2.30;;
22614;SDS011;11474;50.790;0.298;2022-10-16T15:07:16;10.00;;;2.83;;
22614;SDS011;11474;50.790;0.298;2022-10-16T15:09:42;12.70;;;2.45;;
22614;SDS011;11474;50.790;0.298;2022-10-16T15:12:08;14.30;;;2.83;;
22614;SDS011;11474;50.790;0.298;2022-10-16T15:14:34;10.87;;;2.60;;
22614;SDS011;11474;50.790;0.298;2022-10-16T15:17:01;12.15;;;2.70;;
22614;SDS011;11474;50.790;0.298;2022-10-16T15:19:27;9.60;;;2.42;;
22614;SDS011;11474;50.790;0.298;2022-10-16T15:21:53;10.20;;;2.42;;
22614;SDS011;11474;50.790;0.298;2022-10-16T15:24:19;12.10;;;2.45;;
22614;SDS011;11474;50.790;0.298;2022-10-16T15:26:45;12.93;;;2.65;;
22614;SDS011;11474;50.790;0.298;2022-10-16T15:29:11;8.90;;;2.10;;
22614;SDS011;11474;50.790;0.298;2022-10-16T15:31:37;15.38;;;2.58;;
22614;SDS011;11474;50.790;0.298;2022-10-16T15:34:03;13.83;;;2.57;;
22614;SDS011;11474;50.790;0.298;2022-10-16T15:36:34;11.27;;;2.58;;
22614;SDS011;11474;50.790;0.298;2022-10-16T15:39:02;13.77;;;2.83;;
22614;SDS011;11474;50.790;0.298;2022-10-16T15:41:28;11.02;;;2.25;;
22614;SDS011;11474;50.790;0.298;2022-10-16T15:43:54;11.18;;;3.00;;
22614;SDS011;11474;50.790;0.298;2022-10-16T15:46:21;12.68;;;2.60;;
22614;SDS011;11474;50.790;0.298;2022-10-16T15:48:47;14.07;;;2.50;;
22614;SDS011;11474;50.790;0.298;2022-10-16T15:51:13;10.43;;;2.42;;
22614;SDS011;11474;50.790;0.298;2022-10-16T15:53:40;11.18;;;2.60;;
22614;SDS011;11474;50.790;0.298;2022-10-16T15:56:06;13.77;;;3.07;;
22614;SDS011;11474;50.790;0.298;2022-10-16T15:58:33;15.02;;;3.15;;
22614;SDS011;11474;50.790;0.298;2022-10-16T16:01:00;16.02;;;2.60;;
22614;SDS011;11474;50.790;0.298;2022-10-16T16:03:27;11.38;;;2.90;;
22614;SDS011;11474;50.790;0.298;2022-10-16T16:05:54;12.82;;;2.50;;
22614;SDS011;11474;50.790;0.298;2022-10-16T16:08:20;13.70;;;3.03;;
22614;SDS011;11474;50.790;0.298;2022-10-16T16:10:56;10.50;;;2.60;;
22614;SDS011;11474;50.790;0.298;2022-10-16T16:13:22;9.93;;;2.50;;
22614;SDS011;11474;50.790;0.298;2022-10-16T16:15:48;11.30;;;2.33;;
22614;SDS011;11474;50.790;0.298;2022-10-16T16:18:14;11.65;;;2.53;;
22614;SDS011;11474;50.790;0.298;2022-10-16T16:20:40;12.80;;;2.50;;
22614;SDS011;11474;50.790;0.298;2022-10-16T16:23:06;10.02;;;2.38;;
22614;SDS011;11474;50.790;0.298;2022-10-16T16:25:32;16.08;;;2.85;;
22614;SDS011;11474;50.790;0.298;2022-10-16T16:27:58;13.48;;;2.60;;
22614;SDS011;11474;50.790;0.298;2022-10-16T16:30:24;10.35;;;2.47;;
22614;SDS011;11474;50.790;0.298;2022-10-16T16:32:50;17.30;;;2.80;;
22614;SDS011;11474;50.790;0.298;2022-10-16T16:35:17;10.93;;;2.35;;
22614;SDS011;11474;50.790;0.298;2022-10-16T16:37:43;15.93;;;2.95;;